Time;durP1;ratioP1;P1;durP2;ratioP2;P2;SDS_P1;SDS_P2;PMS_P1;PMS_P2;Temp;Humidity;BMP_temperature;BMP_pressure;BME280_temperature;BME280_humidity;BME280_pressure;Samples;Min_cycle;Max_cycle;Signal;HPM_P1;HPM_P2
2023/04/05 00:00:28;;;;;;;3.53;2.50;;;;;;;7.19;58.84;99022.94;3170386;28;20039;-67
2023/04/05 00:02:00;;;;;;;3.40;2.03;;;;;;;7.18;58.96;99018.66;3170353;28;20047;-67
2023/04/05 00:03:32;;;;;;;4.35;2.70;;;;;;;7.18;59.09;99021.25;3170780;28;20075;-67
2023/04/05 00:05:04;;;;;;;3.28;2.40;;;;;;;7.19;58.92;99022.94;3170647;28;20043;-67
2023/04/05 00:06:38;;;;;;;3.10;2.50;;;;;;;7.22;59.10;99022.81;3170811;28;20135;-66
2023/04/05 00:08:22;;;;;;;3.83;2.38;;;;;;;7.22;59.04;99016.78;3170431;28;20109;-67
2023/04/05 00:09:54;;;;;;;3.65;2.40;;;;;;;7.24;59.00;99022.72;3164664;28;20105;-67
2023/04/05 00:11:26;;;;;;;3.40;2.35;;;;;;;7.24;59.04;99040.84;3166933;28;20048;-68
2023/04/05 00:12:59;;;;;;;3.23;2.53;;;;;;;7.21;58.92;99026.28;3166697;28;20567;-67
2023/04/05 00:14:30;;;;;;;4.05;2.70;;;;;;;7.23;58.89;99028.81;3165860;28;20043;-67
2023/04/05 00:16:01;;;;;;;3.95;2.75;;;;;;;7.16;58.83;99012.72;3170706;28;20044;-67
2023/04/05 00:17:34;;;;;;;3.92;2.78;;;;;;;7.21;59.09;99028.88;3170215;28;20485;-66
2023/04/05 00:19:04;;;;;;;4.47;2.58;;;;;;;7.19;59.00;99024.69;3170364;28;20127;-67
2023/04/05 00:20:37;;;;;;;3.75;2.60;;;;;;;7.18;59.11;99035.94;3165843;28;20520;-67
2023/04/05 00:22:09;;;;;;;3.85;2.50;;;;;;;7.17;59.20;99023.91;3170718;28;20043;-67
2023/04/05 00:23:43;;;;;;;5.00;3.15;;;;;;;7.19;59.13;99032.47;3169741;28;20048;-67
2023/04/05 00:25:15;;;;;;;5.93;2.85;;;;;;;7.19;59.19;99027.28;3169726;28;20055;-67
2023/04/05 00:26:47;;;;;;;3.88;2.45;;;;;;;7.19;59.26;99030.72;3160184;28;20048;-67
2023/04/05 00:28:18;;;;;;;4.53;3.00;;;;;;;7.21;59.14;99022.84;3165088;28;20054;-66
2023/04/05 00:29:49;;;;;;;4.75;2.80;;;;;;;7.15;59.36;99023.97;3170023;28;20440;-66
2023/04/05 00:31:20;;;;;;;5.18;3.13;;;;;;;7.17;59.17;99035.09;3170318;28;20063;-66
2023/04/05 00:32:52;;;;;;;5.03;3.72;;;;;;;7.18;59.37;99034.19;3170423;28;20047;-66
2023/04/05 00:34:24;;;;;;;4.38;2.70;;;;;;;7.15;59.27;99038.66;3170177;28;20519;-66
2023/04/05 00:35:55;;;;;;;5.38;3.15;;;;;;;7.14;59.32;99037.00;3170165;27;20058;-66
2023/04/05 00:37:27;;;;;;;7.05;2.78;;;;;;;7.11;59.74;99042.31;3170384;28;20063;-67
2023/04/05 00:39:00;;;;;;;5.22;2.95;;;;;;;7.11;59.78;99034.53;3170264;28;20047;-67
2023/04/05 00:40:32;;;;;;;6.22;3.08;;;;;;;7.11;59.81;99040.56;3168849;28;20079;-66
2023/04/05 00:42:04;;;;;;;4.63;3.13;;;;;;;7.08;59.60;99032.91;3169342;28;20132;-65
2023/04/05 00:43:35;;;;;;;4.57;3.23;;;;;;;7.09;59.56;99036.34;3167758;28;20122;-66
2023/04/05 00:45:08;;;;;;;4.97;2.83;;;;;;;7.08;59.79;99035.50;3170228;28;20436;-66
2023/04/05 00:46:40;;;;;;;5.20;3.65;;;;;;;7.04;59.71;99045.16;3170192;28;20079;-66
2023/04/05 00:48:12;;;;;;;4.97;2.92;;;;;;;7.04;59.75;99034.81;3170284;28;20047;-66
2023/04/05 00:49:44;;;;;;;6.68;3.28;;;;;;;7.02;59.71;99034.00;3170148;28;20055;-67
2023/04/05 00:51:16;;;;;;;4.13;2.83;;;;;;;7.02;59.64;99039.19;3170070;28;20043;-67
2023/04/05 00:52:49;;;;;;;6.03;3.13;;;;;;;7.02;59.64;99044.38;3170282;28;20070;-67
2023/04/05 00:54:22;;;;;;;3.90;2.60;;;;;;;6.99;59.32;99039.31;3163025;28;20090;-67
2023/04/05 00:55:54;;;;;;;5.72;3.17;;;;;;;6.98;59.58;99045.41;3167296;28;20047;-67
2023/04/05 00:57:29;;;;;;;3.53;2.38;;;;;;;6.96;59.28;99036.88;3170180;28;20051;-67
2023/04/05 00:59:00;;;;;;;4.22;2.70;;;;;;;6.96;59.29;99041.22;3157612;28;20055;-68
2023/04/05 01:00:32;;;;;;;4.53;3.13;;;;;;;6.96;59.42;99049.81;3170267;28;20054;-67
2023/04/05 01:02:12;;;;;;;4.53;2.95;;;;;;;6.97;59.17;99051.47;3170069;28;20051;-68
2023/04/05 01:03:52;;;;;;;4.10;2.90;;;;;;;6.63;59.26;98991.72;3169921;28;20480;-67
2023/04/05 01:05:35;;;;;;;4.75;2.95;;;;;;;6.25;59.39;98932.91;3169914;28;20497;-67
2023/04/05 01:07:13;;;;;;;4.60;2.80;;;;;;;6.91;59.50;99048.31;3157203;28;20060;-67
2023/04/05 01:08:51;;;;;;;4.53;2.92;;;;;;;6.91;59.46;99040.56;3160984;28;20083;-67
2023/04/05 01:10:31;;;;;;;3.63;2.63;;;;;;;6.92;59.50;99040.50;3157300;28;20059;-66
2023/04/05 01:12:05;;;;;;;5.07;3.15;;;;;;;6.93;59.54;99036.16;3157736;28;20068;-66
2023/04/05 01:13:37;;;;;;;4.63;2.88;;;;;;;6.92;59.35;99037.06;3160487;28;20040;-66
2023/04/05 01:15:10;;;;;;;5.20;3.40;;;;;;;6.98;59.49;99048.00;3161025;28;20128;-67
2023/04/05 01:16:41;;;;;;;6.70;2.67;;;;;;;6.98;59.39;99047.13;3170140;28;20068;-66
2023/04/05 01:18:13;;;;;;;7.32;3.33;;;;;;;6.97;59.45;99054.06;3170053;28;20051;-67
2023/04/05 01:19:47;;;;;;;5.68;3.42;;;;;;;6.96;59.28;99046.38;3166684;28;20104;-67
2023/04/05 01:21:44;;;;;;;5.40;3.20;;;;;;;6.95;59.38;99048.13;3167426;28;20460;-67
2023/04/05 01:23:41;;;;;;;6.13;3.70;;;;;;;6.91;59.43;99054.34;3157342;28;20142;-67
2023/04/05 01:25:35;;;;;;;6.10;3.95;;;;;;;6.89;59.53;99058.75;3156049;28;20056;-67
2023/04/05 01:27:10;;;;;;;5.22;3.13;;;;;;;6.89;59.63;99047.53;3163457;28;20432;-67
2023/04/05 01:28:57;;;;;;;7.20;3.55;;;;;;;6.89;59.67;99053.56;3164110;28;20051;-67
2023/04/05 01:30:36;;;;;;;5.43;3.47;;;;;;;6.89;59.60;99061.34;3167101;28;20505;-67
2023/04/05 01:32:15;;;;;;;4.35;2.83;;;;;;;6.89;59.60;99056.16;3169692;28;20050;-67
2023/04/05 01:33:55;;;;;;;5.57;3.28;;;;;;;6.87;59.61;99057.13;3167678;28;20134;-67
2023/04/05 01:35:43;;;;;;;5.57;3.10;;;;;;;6.86;59.80;99058.00;3169633;28;20082;-67
2023/04/05 01:37:19;;;;;;;5.53;3.00;;;;;;;6.82;59.70;99057.31;3169578;28;20508;-66
2023/04/05 01:38:53;;;;;;;5.18;3.53;;;;;;;6.79;59.67;99060.03;3169919;28;20248;-66
2023/04/05 01:40:25;;;;;;;5.60;3.40;;;;;;;6.76;59.72;99060.16;3169527;28;20070;-66
2023/04/05 01:41:58;;;;;;;3.72;3.08;;;;;;;6.77;59.83;99062.69;3167695;28;20051;-66
2023/04/05 01:43:30;;;;;;;4.95;3.00;;;;;;;6.75;59.89;99061.06;3167118;28;20058;-66
2023/04/05 01:45:01;;;;;;;5.03;2.88;;;;;;;6.73;60.07;99058.53;3169443;28;20050;-66
2023/04/05 01:46:35;;;;;;;5.88;3.42;;;;;;;6.75;60.01;99063.66;3169726;28;20384;-66
2023/04/05 01:48:07;;;;;;;6.35;4.15;;;;;;;6.72;60.09;99056.84;3169703;28;20500;-66
2023/04/05 01:49:39;;;;;;;6.68;3.30;;;;;;;6.68;59.88;99062.22;3169766;28;20055;-67
2023/04/05 01:51:11;;;;;;;5.45;3.20;;;;;;;6.68;59.92;99065.63;3169581;28;20048;-66
2023/04/05 01:52:43;;;;;;;6.05;3.50;;;;;;;6.67;60.02;99060.53;3169561;28;20073;-66
2023/04/05 01:54:15;;;;;;;6.32;3.75;;;;;;;6.67;60.19;99068.31;3162142;28;20048;-66
2023/04/05 01:55:47;;;;;;;5.13;3.72;;;;;;;6.66;60.19;99069.22;3169729;28;20090;-67
2023/04/05 01:57:19;;;;;;;6.22;3.85;;;;;;;6.64;60.18;99068.44;3159925;28;20048;-67
2023/04/05 01:58:50;;;;;;;5.22;3.45;;;;;;;6.64;60.08;99071.00;3164802;28;20059;-67
2023/04/05 02:00:22;;;;;;;4.82;3.28;;;;;;;6.64;60.26;99078.78;3157210;28;20052;-67
2023/04/05 02:01:55;;;;;;;4.50;3.45;;;;;;;6.63;60.49;99069.34;3167062;28;20055;-66
2023/04/05 02:03:26;;;;;;;4.97;3.40;;;;;;;6.55;60.32;99065.31;3169673;28;20048;-67
2023/04/05 02:04:58;;;;;;;5.53;3.22;;;;;;;6.52;60.44;99067.19;3169357;28;20153;-66
2023/04/05 02:06:31;;;;;;;6.07;3.63;;;;;;;6.55;60.22;99077.41;3169821;28;20051;-67
2023/04/05 02:08:02;;;;;;;7.63;4.13;;;;;;;6.56;60.25;99077.31;3171931;27;20079;-65
2023/04/05 02:09:34;;;;;;;6.15;3.38;;;;;;;6.54;60.38;99076.56;3171881;28;20047;-65
2023/04/05 02:11:06;;;;;;;5.80;3.70;;;;;;;6.53;60.25;99080.03;3171901;28;20093;-66
2023/04/05 02:12:37;;;;;;;5.90;3.67;;;;;;;6.54;60.39;99086.06;3165045;28;20044;-66
2023/04/05 02:14:09;;;;;;;4.78;3.17;;;;;;;6.53;60.35;99077.44;3163403;28;20573;-66
2023/04/05 02:15:41;;;;;;;5.93;3.65;;;;;;;6.50;60.06;99079.31;3170875;28;20040;-66
2023/04/05 02:17:16;;;;;;;4.53;3.30;;;;;;;6.47;60.19;99082.03;3171908;28;20048;-67
2023/04/05 02:18:49;;;;;;;5.45;3.67;;;;;;;6.43;60.28;99083.91;3172264;28;20185;-67
2023/04/05 02:20:21;;;;;;;10.10;4.25;;;;;;;6.40;60.35;99073.69;3166290;28;20048;-66
2023/04/05 02:21:53;;;;;;;5.82;3.20;;;;;;;6.42;60.10;99084.81;3171816;28;20055;-67
2023/04/05 02:23:25;;;;;;;6.90;3.03;;;;;;;6.42;60.16;99086.53;3172046;28;20087;-68
2023/04/05 02:24:56;;;;;;;3.92;2.75;;;;;;;6.38;60.20;99075.47;3172117;28;20056;-66
2023/04/05 02:26:28;;;;;;;5.35;3.42;;;;;;;6.42;60.36;99081.38;3171743;28;20071;-66
2023/04/05 02:28:00;;;;;;;5.00;3.47;;;;;;;6.43;60.38;99088.25;3166069;28;20055;-65
2023/04/05 02:29:33;;;;;;;5.57;4.03;;;;;;;6.41;60.36;99090.88;3170095;28;20423;-67
2023/04/05 02:31:09;;;;;;;5.20;3.50;;;;;;;6.37;60.34;99094.50;3171445;28;20497;-67
2023/04/05 02:32:43;;;;;;;5.28;3.20;;;;;;;6.38;60.34;99093.56;3171976;28;20085;-66
2023/04/05 02:34:15;;;;;;;4.90;3.65;;;;;;;6.36;60.41;99104.00;3168174;28;20049;-66
2023/04/05 02:35:48;;;;;;;5.13;3.75;;;;;;;6.37;60.37;99094.50;3171769;28;20077;-66
2023/04/05 02:37:20;;;;;;;6.65;4.18;;;;;;;6.34;60.29;99095.44;3171705;28;20513;-67
2023/04/05 02:38:52;;;;;;;8.57;4.28;;;;;;;6.32;60.45;99101.56;3172010;28;20079;-67
2023/04/05 02:40:24;;;;;;;5.90;3.92;;;;;;;6.30;60.47;99103.38;3171756;28;20457;-66
2023/04/05 02:41:55;;;;;;;6.07;4.22;;;;;;;6.31;60.47;99095.56;3169071;28;20476;-67
2023/04/05 02:43:27;;;;;;;6.20;3.92;;;;;;;6.30;60.38;99106.81;3163679;28;20051;-66
2023/04/05 02:44:58;;;;;;;6.28;4.22;;;;;;;6.28;60.30;99103.44;3171746;28;20047;-66
2023/04/05 02:46:30;;;;;;;7.55;5.00;;;;;;;6.27;60.31;99101.78;3171379;28;20043;-66
2023/04/05 02:48:03;;;;;;;6.93;4.50;;;;;;;6.29;60.51;99093.94;3171956;28;20051;-67
2023/04/05 02:49:33;;;;;;;7.13;4.63;;;;;;;6.27;60.29;99098.31;3171325;28;20055;-66
2023/04/05 02:51:05;;;;;;;6.55;4.60;;;;;;;6.26;60.42;99099.22;3171398;28;20545;-66
2023/04/05 02:52:37;;;;;;;7.35;5.00;;;;;;;6.25;60.47;99100.97;3171915;28;20079;-66
2023/04/05 02:54:09;;;;;;;8.43;5.50;;;;;;;6.25;60.49;99106.16;3166456;28;20097;-66
2023/04/05 02:55:41;;;;;;;8.10;5.38;;;;;;;5.96;60.49;99049.56;3165982;28;20432;-66
2023/04/05 02:57:13;;;;;;;7.47;4.82;;;;;;;6.26;60.41;99101.81;3166707;28;20541;-66
2023/04/05 02:58:46;;;;;;;6.97;4.35;;;;;;;6.28;60.21;99107.78;3159121;28;20059;-66
2023/04/05 03:00:19;;;;;;;9.25;4.90;;;;;;;6.25;60.24;99107.91;3169652;28;20047;-66
2023/04/05 03:01:51;;;;;;;7.40;4.95;;;;;;;6.25;60.36;99100.97;3171368;28;20078;-64
2023/04/05 03:03:25;;;;;;;6.38;4.65;;;;;;;6.27;60.48;99108.66;3168896;28;20051;-66
2023/04/05 03:04:55;;;;;;;8.15;4.65;;;;;;;6.27;60.27;99106.06;3167665;28;20059;-66
2023/04/05 03:06:27;;;;;;;6.40;4.15;;;;;;;6.26;60.22;99107.00;3171405;27;20047;-67
2023/04/05 03:08:01;;;;;;;9.95;4.45;;;;;;;6.24;60.20;99108.78;3171411;28;20062;-67
2023/04/05 03:09:32;;;;;;;6.38;4.35;;;;;;;6.22;60.17;99108.84;3164959;28;20048;-66
2023/04/05 03:11:05;;;;;;;7.15;4.40;;;;;;;6.17;60.18;99110.78;3159294;28;20722;-66
2023/04/05 03:12:36;;;;;;;9.05;4.75;;;;;;;6.20;60.12;99104.63;3162234;28;20040;-66
2023/04/05 03:14:10;;;;;;;6.25;4.18;;;;;;;6.20;60.18;99113.22;3163114;28;20444;-66
2023/04/05 03:15:41;;;;;;;6.80;4.53;;;;;;;6.18;60.20;99120.19;3171327;28;20071;-66
2023/04/05 03:17:13;;;;;;;6.10;4.30;;;;;;;6.16;60.04;99111.69;3171338;28;20123;-66
2023/04/05 03:18:45;;;;;;;6.93;4.55;;;;;;;6.15;60.04;99115.16;3170754;28;20064;-67
2023/04/05 03:20:17;;;;;;;6.80;3.90;;;;;;;6.16;60.14;99122.03;3165893;28;20677;-66
2023/04/05 03:21:49;;;;;;;6.68;4.32;;;;;;;6.17;60.04;99123.69;3171091;28;20429;-66
2023/04/05 03:23:25;;;;;;;5.70;4.05;;;;;;;6.17;60.24;99117.69;3171397;28;20052;-66
2023/04/05 03:24:57;;;;;;;5.97;4.00;;;;;;;6.15;60.13;99116.00;3171211;28;20510;-66
2023/04/05 03:26:32;;;;;;;7.85;4.28;;;;;;;6.13;60.13;99110.06;3171062;28;20127;-66
2023/04/05 03:28:07;;;;;;;5.82;3.63;;;;;;;6.18;60.41;99120.19;3158159;28;20497;-66
2023/04/05 03:29:39;;;;;;;7.43;4.15;;;;;;;6.19;60.20;99121.06;3171037;28;20457;-66
2023/04/05 03:31:12;;;;;;;6.00;3.80;;;;;;;6.18;60.15;99125.38;3171034;28;20066;-66
2023/04/05 03:32:43;;;;;;;5.63;3.65;;;;;;;6.22;60.00;99121.78;3169883;28;20642;-66
2023/04/05 03:34:17;;;;;;;7.38;4.45;;;;;;;6.23;59.91;99122.63;3170619;28;20048;-67
2023/04/05 03:35:49;;;;;;;6.88;4.22;;;;;;;6.23;60.10;99120.03;3170820;28;20048;-66
2023/04/05 03:37:20;;;;;;;8.15;4.57;;;;;;;6.24;59.94;99119.13;3171083;28;20055;-66
2023/04/05 03:38:55;;;;;;;6.57;3.97;;;;;;;6.24;59.88;99122.56;3170484;28;20460;-66
2023/04/05 03:40:29;;;;;;;6.28;4.03;;;;;;;6.25;59.73;99120.84;3169978;28;20074;-65
2023/04/05 03:42:01;;;;;;;6.78;4.43;;;;;;;6.24;59.80;99124.28;3167932;28;20509;-65
2023/04/05 03:43:33;;;;;;;8.95;4.40;;;;;;;6.22;59.75;99126.97;3168152;28;20047;-65
2023/04/05 03:45:07;;;;;;;7.45;4.50;;;;;;;6.16;59.60;99116.84;3170972;28;20473;-65
2023/04/05 03:46:41;;;;;;;7.78;4.13;;;;;;;6.23;59.60;99128.63;3171107;28;20087;-66
2023/04/05 03:48:13;;;;;;;5.93;3.85;;;;;;;6.24;59.55;99125.16;3170598;28;20071;-65
2023/04/05 03:49:46;;;;;;;7.38;4.18;;;;;;;5.87;59.61;99064.47;3167675;28;20207;-66
2023/04/05 03:51:17;;;;;;;6.60;4.00;;;;;;;6.21;59.64;99120.13;3170474;28;20055;-66
2023/04/05 03:52:49;;;;;;;8.55;4.40;;;;;;;6.22;59.71;99124.38;3170886;28;20134;-67
2023/04/05 03:54:20;;;;;;;7.10;4.10;;;;;;;6.20;59.80;99120.16;3165210;28;20482;-63
2023/04/05 03:55:52;;;;;;;8.93;4.78;;;;;;;6.23;59.74;99130.38;3170533;28;20055;-67
2023/04/05 03:57:23;;;;;;;7.45;4.45;;;;;;;6.24;59.96;99125.16;3170243;28;20047;-67
2023/04/05 03:58:56;;;;;;;12.75;4.95;;;;;;;6.23;59.72;99127.78;3159946;27;20083;-66
2023/04/05 04:00:27;;;;;;;7.53;4.40;;;;;;;6.23;59.73;99125.22;3170820;28;20427;-66
2023/04/05 04:01:58;;;;;;;6.63;4.03;;;;;;;6.24;59.92;99134.63;3170560;28;20131;-65
2023/04/05 04:03:29;;;;;;;7.85;4.88;;;;;;;6.23;59.74;99130.38;3170858;28;20043;-67
2023/04/05 04:05:05;;;;;;;8.73;4.78;;;;;;;6.23;59.78;99133.81;3170379;28;20082;-65
2023/04/05 04:06:37;;;;;;;8.13;4.80;;;;;;;6.23;59.70;99145.88;3169917;28;20051;-65
2023/04/05 04:08:09;;;;;;;8.98;5.25;;;;;;;6.21;59.75;99145.97;3168591;28;20048;-65
2023/04/05 04:09:41;;;;;;;9.20;4.93;;;;;;;6.19;59.81;99137.41;3169815;28;20477;-65
2023/04/05 04:11:12;;;;;;;8.05;4.78;;;;;;;6.25;59.82;99146.69;3170287;28;20051;-67
2023/04/05 04:12:44;;;;;;;9.85;4.78;;;;;;;6.18;59.77;99134.88;3168298;28;20108;-67
2023/04/05 04:14:15;;;;;;;7.53;4.75;;;;;;;6.29;59.77;99145.66;3167228;28;20047;-67
2023/04/05 04:15:47;;;;;;;7.32;4.57;;;;;;;6.30;59.86;99150.78;3170351;28;20444;-66
2023/04/05 04:17:26;;;;;;;11.50;5.03;;;;;;;5.96;59.72;99099.50;3169563;28;20090;-68
2023/04/05 04:18:58;;;;;;;8.63;5.40;;;;;;;6.31;59.73;99151.63;3171787;28;20464;-67
2023/04/05 04:20:32;;;;;;;11.48;4.55;;;;;;;6.32;59.85;99151.53;3163609;28;20080;-69
2023/04/05 04:22:03;;;;;;;;;;;;;;;6.27;59.75;99157.78;3171201;28;20063;-67
2023/04/05 04:23:37;;;;;;;10.93;5.20;;;;;;;6.25;59.93;99152.69;3170837;28;20028;-67
2023/04/05 04:25:10;;;;;;;9.27;4.35;;;;;;;6.33;59.97;99160.16;3170113;28;20207;-65
2023/04/05 04:26:41;;;;;;;6.43;4.80;;;;;;;6.35;60.11;99160.94;3169130;28;20052;-65
2023/04/05 04:28:18;;;;;;;21.10;11.00;;;;;;;6.36;60.12;99167.81;3156520;28;20052;-67
2023/04/05 04:29:55;;;;;;;22.58;12.55;;;;;;;6.40;60.09;99160.78;3156283;28;20096;-68
2023/04/05 04:31:27;;;;;;;9.40;4.97;;;;;;;6.42;59.99;99156.38;3160603;28;20051;-66
2023/04/05 04:33:03;;;;;;;9.70;5.05;;;;;;;6.46;59.84;99160.53;3160775;28;20079;-66
2023/04/05 04:34:34;;;;;;;7.63;4.70;;;;;;;6.47;59.72;99160.47;3160014;28;20084;-64
2023/04/05 04:36:12;;;;;;;7.78;4.75;;;;;;;6.09;59.65;99108.50;3160051;28;20054;-66
2023/04/05 04:37:45;;;;;;;7.90;4.95;;;;;;;6.49;59.79;99169.00;3159828;28;20369;-67
2023/04/05 04:39:17;;;;;;;13.50;7.78;;;;;;;6.48;59.69;99164.75;3159845;28;20047;-66
2023/04/05 04:40:49;;;;;;;9.43;5.70;;;;;;;6.48;59.60;99167.34;3165298;28;20112;-67
2023/04/05 04:42:22;;;;;;;38.75;19.05;;;;;;;6.49;59.54;99171.59;3165192;28;20043;-64
2023/04/05 04:43:57;;;;;;;8.57;5.18;;;;;;;6.50;59.64;99177.63;3156510;28;20048;-72
2023/04/05 04:45:33;;;;;;;15.55;5.82;;;;;;;6.48;59.23;99176.84;3160990;28;20082;-70
2023/04/05 04:47:11;;;;;;;9.25;5.40;;;;;;;6.43;59.10;99184.78;3165142;28;20119;-69
2023/04/05 04:48:46;;;;;;;8.80;5.03;;;;;;;6.40;59.07;99184.88;3164266;28;20574;-74
2023/04/05 04:50:18;;;;;;;14.80;8.35;;;;;;;6.40;59.02;99187.47;3165016;28;20434;-68
2023/04/05 04:51:52;;;;;;;43.65;24.13;;;;;;;6.43;59.11;99191.69;3164755;28;20055;-69
2023/04/05 04:53:24;;;;;;;11.27;5.97;;;;;;;6.44;59.15;99183.03;3163878;28;20494;-70
2023/04/05 04:54:56;;;;;;;8.18;4.50;;;;;;;6.46;59.10;99196.75;3157280;28;20138;-66
2023/04/05 04:56:28;;;;;;;7.68;4.63;;;;;;;6.47;58.86;99196.66;3164679;28;20475;-69
2023/04/05 04:58:00;;;;;;;7.45;4.20;;;;;;;6.34;58.75;99177.38;3164207;28;20047;-73
2023/04/05 04:59:33;;;;;;;7.35;3.95;;;;;;;6.49;58.45;99194.88;3162911;28;20593;-68
2023/04/05 05:01:08;;;;;;;6.18;3.60;;;;;;;6.46;58.23;99205.34;3164752;28;20189;-68
2023/04/05 05:02:42;;;;;;;6.68;3.90;;;;;;;6.46;58.27;99187.25;3164979;28;20063;-72
2023/04/05 05:04:14;;;;;;;6.50;3.92;;;;;;;6.43;58.14;99189.94;3164235;28;20075;-70
2023/04/05 05:05:49;;;;;;;8.68;4.07;;;;;;;6.46;58.03;99187.25;3164090;28;20051;-71
2023/04/05 05:07:22;;;;;;;7.63;3.92;;;;;;;6.44;57.94;99181.28;3164334;28;20051;-71
2023/04/05 05:08:55;;;;;;;5.30;3.53;;;;;;;6.52;57.64;99196.50;3164591;28;20132;-69
2023/04/05 05:10:27;;;;;;;5.30;3.28;;;;;;;6.46;57.39;99189.00;3164637;28;20166;-71
2023/04/05 05:12:00;;;;;;;8.05;4.20;;;;;;;6.50;57.63;99204.31;3164934;28;20086;-67
2023/04/05 05:14:02;;;;;;;12.07;4.88;;;;;;;6.53;57.54;99216.28;3151509;28;20134;-70
2023/04/05 05:17:31;;;;;;;5.40;3.55;;;;;;;6.51;57.58;99203.44;3161239;28;20060;-66
2023/04/05 05:21:25;;;;;;;5.35;3.22;;;;;;;6.51;57.48;99198.25;3163260;28;20055;-63
2023/04/05 05:23:05;;;;;;;7.05;4.10;;;;;;;6.55;57.33;99212.75;3162928;28;20051;-64
2023/04/05 05:26:40;;;;;;;5.97;3.72;;;;;;;6.60;57.27;99210.00;3136664;28;20113;-64
2023/04/05 05:28:18;;;;;;;9.57;4.40;;;;;;;6.60;57.18;99221.19;3149610;28;20303;-63
2023/04/05 05:29:59;;;;;;;9.52;3.95;;;;;;;6.63;57.13;99214.22;3162806;28;20626;-64
2023/04/05 05:31:50;;;;;;;7.35;4.45;;;;;;;6.64;57.10;99211.56;3163087;28;20074;-67
2023/04/05 05:33:29;;;;;;;8.60;4.20;;;;;;;6.65;57.11;99212.41;3161906;28;20510;-65
2023/04/05 05:35:04;;;;;;;8.23;4.30;;;;;;;6.66;57.25;99203.75;3162710;28;20104;-63
2023/04/05 05:36:44;;;;;;;18.88;8.07;;;;;;;6.68;57.16;99218.28;3163822;28;20078;-65
2023/04/05 05:38:28;;;;;;;9.60;5.68;;;;;;;6.69;57.09;99214.81;3161998;28;20279;-65
2023/04/05 05:40:01;;;;;;;8.07;4.72;;;;;;;6.67;56.91;99211.44;3162272;28;20094;-64
2023/04/05 05:41:36;;;;;;;7.93;4.63;;;;;;;6.67;56.84;99205.44;3163709;28;20085;-64
2023/04/05 05:43:09;;;;;;;7.40;4.00;;;;;;;6.70;57.00;99206.16;3165200;28;20155;-65
2023/04/05 05:44:45;;;;;;;6.53;4.00;;;;;;;6.74;56.82;99209.44;3165891;28;20047;-65
2023/04/05 05:46:19;;;;;;;8.48;3.47;;;;;;;6.74;56.61;99206.88;3165567;28;20309;-65
2023/04/05 05:47:52;;;;;;;6.75;3.72;;;;;;;6.73;56.79;99210.38;3165561;28;20059;-64
2023/04/05 05:49:55;;;;;;;5.47;3.28;;;;;;;6.76;56.61;99205.91;3164851;28;20055;-64
2023/04/05 05:51:32;;;;;;;5.10;3.20;;;;;;;6.77;56.62;99217.09;3165956;28;20736;-65
2023/04/05 05:53:07;;;;;;;6.93;3.58;;;;;;;6.78;56.38;99211.03;3157871;28;20058;-65
2023/04/05 05:54:41;;;;;;;8.40;4.10;;;;;;;6.79;56.35;99210.13;3165704;28;20052;-68
2023/04/05 05:56:16;;;;;;;;;;;;;;;6.75;56.25;99213.75;3163144;28;20058;-67
2023/04/05 05:58:01;;;;;;;;;;;;;;;;;;;;;
2023/04/05 05:59:34;;;;;;;5.75;3.22;;;;;;;6.77;56.05;99211.91;3160100;28;20253;-65
2023/04/05 06:01:07;;;;;;;5.18;2.92;;;;;;;6.78;55.69;99208.44;3165872;28;20513;-66
2023/04/05 06:02:40;;;;;;;6.97;3.55;;;;;;;6.78;55.73;99208.44;3167135;28;20600;-67
2023/04/05 06:04:12;;;;;;;5.75;3.42;;;;;;;6.79;55.35;99210.13;3166656;28;20043;-67
2023/04/05 06:05:51;;;;;;;6.72;3.47;;;;;;;6.77;55.31;99207.63;3167140;28;20061;-69
2023/04/05 06:07:23;;;;;;;5.93;3.40;;;;;;;6.82;55.45;99210.84;3166740;28;20074;-69
2023/04/05 06:08:56;;;;;;;5.38;2.80;;;;;;;6.85;55.37;99215.06;3166623;28;20066;-67
2023/04/05 06:10:29;;;;;;;9.55;3.15;;;;;;;6.85;55.21;99212.47;3166482;28;20055;-68
2023/04/05 06:12:01;;;;;;;5.47;2.90;;;;;;;6.87;55.22;99218.44;3166898;28;20459;-68
2023/04/05 06:13:33;;;;;;;8.60;3.92;;;;;;;6.92;55.23;99218.25;3165809;28;20044;-68
2023/04/05 06:15:07;;;;;;;7.47;3.35;;;;;;;6.95;55.16;99226.75;3166696;28;20054;-69
2023/04/05 06:16:39;;;;;;;;;;;;;;;6.91;55.33;99217.41;3167395;28;20444;-69
2023/04/05 06:18:11;;;;;;;7.22;3.13;;;;;;;6.88;55.26;99214.94;3166621;28;20000;-69
2023/04/05 06:19:44;;;;;;;5.57;3.50;;;;;;;6.98;55.24;99231.81;3164907;28;20533;-70
2023/04/05 06:21:16;;;;;;;4.90;3.03;;;;;;;7.01;55.29;99223.91;3159941;28;20496;-70
2023/04/05 06:22:48;;;;;;;6.38;3.25;;;;;;;6.99;55.20;99217.94;3166915;28;20516;-68
2023/04/05 06:24:21;;;;;;;5.50;3.47;;;;;;;7.05;55.24;99220.28;3166811;28;20055;-69
2023/04/05 06:25:55;;;;;;;4.82;2.92;;;;;;;7.07;54.92;99221.06;3166461;28;20162;-69
2023/04/05 06:27:27;;;;;;;6.00;3.40;;;;;;;7.06;54.80;99221.97;3166533;28;20056;-68
2023/04/05 06:28:59;;;;;;;6.45;3.80;;;;;;;7.12;54.98;99228.66;3155547;28;20075;-69
2023/04/05 06:30:32;;;;;;;6.15;2.80;;;;;;;7.12;54.57;99228.66;3166687;28;20144;-67
2023/04/05 06:32:05;;;;;;;9.07;3.15;;;;;;;7.09;54.54;99214.97;3166705;28;20080;-67
2023/04/05 06:33:41;;;;;;;4.70;2.88;;;;;;;7.13;54.69;99224.31;3153101;28;20535;-65
2023/04/05 06:35:19;;;;;;;4.13;2.78;;;;;;;7.17;54.61;99231.06;3154048;28;20667;-67
2023/04/05 06:36:51;;;;;;;4.75;2.97;;;;;;;7.19;54.36;99224.09;3154304;28;20048;-66
2023/04/05 06:38:24;;;;;;;9.60;3.30;;;;;;;7.20;54.42;99225.75;3166160;28;20093;-66
2023/04/05 06:39:57;;;;;;;6.75;3.58;;;;;;;7.26;54.41;99235.88;3166402;28;20157;-72
2023/04/05 06:41:31;;;;;;;7.28;3.20;;;;;;;7.30;54.00;99234.81;3166432;28;20139;-66
2023/04/05 06:43:03;;;;;;;5.38;2.60;;;;;;;7.32;53.77;99230.44;3161786;28;20446;-68
2023/04/05 06:44:35;;;;;;;4.05;2.40;;;;;;;7.20;53.84;99225.75;3163817;28;20055;-66
2023/04/05 06:46:10;;;;;;;5.88;3.08;;;;;;;7.29;53.70;99239.16;3166329;27;20053;-69
2023/04/05 06:47:42;;;;;;;6.22;3.10;;;;;;;6.96;53.49;99191.34;3166527;27;20051;-66
2023/04/05 06:49:14;;;;;;;4.47;2.58;;;;;;;7.33;53.66;99247.66;3166264;27;20749;-69
2023/04/05 06:50:46;;;;;;;5.35;2.53;;;;;;;7.35;53.38;99243.25;3166258;28;20534;-70
2023/04/05 06:52:18;;;;;;;5.40;2.65;;;;;;;7.37;53.38;99243.22;3164981;28;20060;-69
2023/04/05 06:53:50;;;;;;;6.03;2.80;;;;;;;7.34;53.31;99239.00;3164197;28;20473;-70
2023/04/05 06:55:22;;;;;;;7.35;2.58;;;;;;;7.35;53.11;99242.41;3165261;28;20488;-69
2023/04/05 06:56:55;;;;;;;7.60;2.38;;;;;;;7.41;53.04;99253.38;3163636;28;20048;-67
2023/04/05 06:58:28;;;;;;;6.55;2.78;;;;;;;7.39;53.16;99244.81;3163147;28;20048;-67
2023/04/05 07:00:00;;;;;;;6.13;2.73;;;;;;;7.44;53.36;99261.00;3164138;28;20180;-66
2023/04/05 07:01:32;;;;;;;6.65;2.70;;;;;;;7.45;52.80;99260.13;3164893;28;20104;-69
2023/04/05 07:03:05;;;;;;;6.25;2.72;;;;;;;7.43;52.84;99248.97;3165255;28;20056;-69
2023/04/05 07:04:37;;;;;;;6.00;2.30;;;;;;;7.50;53.02;99267.69;3164909;28;20269;-67
2023/04/05 07:06:09;;;;;;;5.97;2.70;;;;;;;7.49;52.92;99264.25;3162730;28;21132;-67
2023/04/05 07:07:43;;;;;;;6.22;2.38;;;;;;;7.41;52.65;99242.16;3164803;28;20062;-68
2023/04/05 07:09:15;;;;;;;8.43;2.53;;;;;;;7.48;53.00;99262.59;3165092;28;20444;-68
2023/04/05 07:10:47;;;;;;;6.10;2.90;;;;;;;7.55;52.95;99263.19;3165548;28;20071;-68
2023/04/05 07:12:20;;;;;;;5.82;2.83;;;;;;;7.58;52.99;99272.56;3165450;28;20528;-68
2023/04/05 07:13:53;;;;;;;6.47;2.65;;;;;;;7.59;52.86;99269.06;3163579;28;20112;-69
2023/04/05 07:15:24;;;;;;;4.50;2.53;;;;;;;7.59;52.92;99269.91;3164876;28;20802;-68
2023/04/05 07:16:57;;;;;;;5.00;2.53;;;;;;;7.56;52.77;99258.81;3164636;27;20508;-66
2023/04/05 07:18:29;;;;;;;4.10;2.23;;;;;;;7.57;52.81;99276.06;3165040;28;20538;-66
2023/04/05 07:20:04;;;;;;;8.30;2.70;;;;;;;7.59;52.47;99271.66;3165060;28;20313;-66
2023/04/05 07:21:37;;;;;;;6.18;2.80;;;;;;;7.58;52.68;99277.75;3164232;28;20062;-71
2023/04/05 07:23:09;;;;;;;5.07;2.38;;;;;;;7.57;52.69;99283.81;3165210;28;20059;-67
2023/04/05 07:24:41;;;;;;;7.90;3.15;;;;;;;7.56;52.41;99276.97;3166193;27;20393;-68
2023/04/05 07:26:13;;;;;;;4.30;2.40;;;;;;;7.54;52.41;99284.78;3164611;28;20052;-71
2023/04/05 07:27:47;;;;;;;3.83;2.15;;;;;;;7.55;52.46;99283.06;3163252;28;20093;-70
2023/04/05 07:29:19;;;;;;;7.45;2.45;;;;;;;7.56;52.36;99284.75;3164511;28;20100;-69
2023/04/05 07:30:52;;;;;;;11.35;2.67;;;;;;;7.57;52.35;99283.81;3166153;28;20421;-71
2023/04/05 07:32:23;;;;;;;5.05;2.40;;;;;;;7.54;52.36;99277.00;3164237;28;20523;-69
2023/04/05 07:33:57;;;;;;;5.03;2.78;;;;;;;7.58;52.21;99288.97;3163955;27;20481;-67